Stations météo

Publicité
Cardiff, Bute Park, Grande-Bretagne (99160): Température de l'air & dewpoint: 21.10.2020 17:00:00 - 27.10.2020 17:00:00 (GMT)Cardiff, Bute Park, Grande-Bretagne (99160): Température de l'air -20cm & Température de l'air -100cm: 21.10.2020 17:00:00 - 27.10.2020 17:00:00 (GMT)Cardiff, Bute Park, Grande-Bretagne (99160): Quantités de précipitations: 21.10.2020 17:00:00 - 27.10.2020 17:00:00 (GMT)
Date & Time tt [°C] td [°C] tt -20cm [°C] tt -100cm [°C] rr [mm]
27.10.2020 17:00:00 - - - - -
27.10.2020 16:00:00 12,1 7,4 - - 0,0
27.10.2020 15:00:00 13,2 8,4 - - 0,2
27.10.2020 14:00:00 13,4 10,8 - - 0,0
27.10.2020 13:00:00 13,2 11,6 - - 0,2
27.10.2020 12:00:00 13,1 12,4 - - 0,6
27.10.2020 11:00:00 12,9 12,5 - - 2,6
27.10.2020 10:00:00 11,8 11,4 - - 1,2
27.10.2020 09:00:00 10,6 10,2 11,5 12,9 1,6
27.10.2020 08:00:00 9,8 9,4 - - 1,0
27.10.2020 07:00:00 9,5 8,6 - - 0,2
27.10.2020 06:00:00 9,6 7,9 - - 0,0
27.10.2020 05:00:00 9,5 8,1 - - 0,6
27.10.2020 04:00:00 9,5 9,0 - - 0,0
27.10.2020 03:00:00 7,6 7,6 - - 0,6
27.10.2020 02:00:00 7,0 7,0 - - 0,0
27.10.2020 01:00:00 7,2 7,2 - - 0,6
27.10.2020 00:00:00 5,7 5,6 - - 0,2
26.10.2020 23:00:00 5,5 5,4 - - 0,0
26.10.2020 22:00:00 5,5 5,2 - - 0,0
26.10.2020 21:00:00 5,9 5,6 - - 0,0
26.10.2020 20:00:00 6,6 6,2 - - 0,0
26.10.2020 19:00:00 7,4 7,0 - - 0,0
26.10.2020 18:00:00 7,8 6,9 - - 0,0
26.10.2020 17:00:00 9,4 7,2 - - 0,4
26.10.2020 16:00:00 11,3 7,6 - - 0,0
26.10.2020 15:00:00 12,3 6,4 - - 0,0
26.10.2020 14:00:00 12,8 6,7 - - 0,0
26.10.2020 13:00:00 13,7 7,3 - - 0,0
26.10.2020 12:00:00 13,6 8,1 - - 0,0
26.10.2020 11:00:00 13,0 8,5 - - 0,0
26.10.2020 10:00:00 11,3 8,5 - - 0,0
26.10.2020 09:00:00 11,0 10,1 11,7 13,0 0,0
26.10.2020 08:00:00 9,3 8,8 - - 0,2
26.10.2020 07:00:00 9,0 8,7 - - 2,6
26.10.2020 06:00:00 8,5 8,3 - - 3,2
26.10.2020 05:00:00 8,1 7,8 - - 0,4
26.10.2020 04:00:00 7,7 6,9 - - 1,4
26.10.2020 03:00:00 8,4 7,6 - - 1,4
26.10.2020 02:00:00 8,0 7,3 - - 0,4
26.10.2020 01:00:00 8,8 7,9 - - 1,0
26.10.2020 00:00:00 8,6 7,3 - - 0,4
25.10.2020 23:00:00 7,4 6,8 - - 0,0
25.10.2020 22:00:00 6,6 5,7 - - 0,0
25.10.2020 21:00:00 8,6 6,7 - - 0,0
25.10.2020 20:00:00 8,7 7,1 - - 0,2
25.10.2020 19:00:00 10,0 7,1 - - 0,0
25.10.2020 18:00:00 9,9 6,4 - - 0,0
25.10.2020 17:00:00 11,1 5,4 - - 0,0
25.10.2020 16:00:00 11,8 6,0 - - 0,0
25.10.2020 15:00:00 12,6 5,9 - - 0,0
25.10.2020 14:00:00 10,3 8,3 - - 0,6
25.10.2020 13:00:00 13,2 6,9 - - 0,0
25.10.2020 12:00:00 14,1 8,1 - - 0,0
25.10.2020 11:00:00 11,8 9,1 - - 0,6
25.10.2020 10:00:00 9,8 7,8 - - 0,6
25.10.2020 09:00:00 10,2 8,2 12,2 13,0 0,4
25.10.2020 08:00:00 8,6 7,8 - - 1,0
25.10.2020 07:00:00 9,0 6,2 - - 0,0
25.10.2020 06:00:00 10,3 6,2 - - 0,0
25.10.2020 05:00:00 9,9 5,9 - - 0,0
25.10.2020 04:00:00 10,1 6,2 - - 0,0
25.10.2020 03:00:00 10,2 6,4 - - 0,0
25.10.2020 02:00:00 10,1 6,8 - - 0,0
25.10.2020 01:00:00 9,9 6,9 - - 0,0
25.10.2020 00:00:00 - - - - -
24.10.2020 23:00:00 8,5 7,0 - - 0,0
24.10.2020 22:00:00 10,8 8,7 - - 0,0
24.10.2020 21:00:00 10,3 8,5 - - 0,4
24.10.2020 20:00:00 11,3 9,8 - - 0,0
24.10.2020 19:00:00 10,7 9,6 - - 0,4
24.10.2020 18:00:00 11,5 10,2 - - 0,4
24.10.2020 17:00:00 13,3 10,9 - - 0,4
24.10.2020 16:00:00 13,4 10,9 - - 0,0
24.10.2020 15:00:00 12,8 11,3 - - 1,4
24.10.2020 14:00:00 12,3 11,5 - - 2,4
24.10.2020 13:00:00 12,6 11,0 - - 1,4
24.10.2020 12:00:00 13,2 11,4 - - 0,2
24.10.2020 11:00:00 13,3 12,2 - - 2,4
24.10.2020 10:00:00 13,8 12,3 - - 0,0
24.10.2020 09:00:00 13,3 11,7 12,5 13,0 0,0
24.10.2020 08:00:00 12,6 11,2 - - 0,2
24.10.2020 07:00:00 12,4 10,4 - - 0,6
24.10.2020 06:00:00 12,7 9,2 - - 0,0
24.10.2020 05:00:00 11,5 8,4 - - 0,0
24.10.2020 04:00:00 11,2 8,4 - - 0,0
24.10.2020 03:00:00 10,8 7,7 - - 0,0
24.10.2020 02:00:00 10,5 7,4 - - 0,0
24.10.2020 01:00:00 9,8 6,8 - - 0,0
24.10.2020 00:00:00 10,1 6,1 - - 0,0
23.10.2020 23:00:00 10,2 6,2 - - 0,0
23.10.2020 22:00:00 9,9 6,7 - - 0,0
23.10.2020 21:00:00 10,4 7,0 - - 0,0
23.10.2020 20:00:00 7,3 6,5 - - 0,0
23.10.2020 19:00:00 7,1 5,7 - - 0,0
23.10.2020 18:00:00 8,6 5,9 - - 0,0
23.10.2020 17:00:00 10,9 5,2 - - 0,0
23.10.2020 16:00:00 11,9 4,6 - - 0,0
23.10.2020 15:00:00 12,8 4,1 - - 0,0
23.10.2020 14:00:00 14,1 6,9 - - 0,0
23.10.2020 13:00:00 14,1 7,7 - - 0,0
23.10.2020 12:00:00 12,8 9,2 - - 0,0
23.10.2020 11:00:00 11,9 10,1 - - 0,4
23.10.2020 10:00:00 12,7 9,4 - - 0,0
23.10.2020 09:00:00 11,9 10,1 12,9 13,0 0,0
23.10.2020 08:00:00 11,7 10,2 - - 0,0
23.10.2020 07:00:00 11,1 10,6 - - 0,0
23.10.2020 06:00:00 10,2 9,9 - - 0,0
23.10.2020 05:00:00 10,4 10,0 - - 0,0
23.10.2020 04:00:00 10,3 9,9 - - 0,0
23.10.2020 03:00:00 10,6 10,1 - - 0,0
23.10.2020 02:00:00 10,6 10,2 - - 0,0
23.10.2020 01:00:00 10,5 9,8 - - 0,2
23.10.2020 00:00:00 10,8 9,5 - - 0,0
22.10.2020 23:00:00 10,9 9,1 - - 0,0
22.10.2020 22:00:00 10,0 8,5 - - 0,0
22.10.2020 21:00:00 10,0 8,5 - - 0,0
22.10.2020 20:00:00 10,2 8,0 - - 0,0
22.10.2020 19:00:00 10,6 7,5 - - 0,0
22.10.2020 18:00:00 11,0 6,9 - - 0,0
22.10.2020 17:00:00 11,5 6,4 - - 0,0
22.10.2020 16:00:00 12,1 6,7 - - 0,0
22.10.2020 15:00:00 12,9 6,1 - - 0,0
22.10.2020 14:00:00 14,3 6,1 - - 0,0
22.10.2020 13:00:00 13,9 6,1 - - 0,0
22.10.2020 12:00:00 14,3 6,9 - - 0,0
22.10.2020 11:00:00 12,2 6,0 - - 0,0
22.10.2020 10:00:00 11,7 8,0 - - 0,0
22.10.2020 09:00:00 10,3 8,3 12,7 13,0 0,0
22.10.2020 08:00:00 9,1 8,3 - - 0,0
22.10.2020 07:00:00 9,1 8,1 - - 0,0
22.10.2020 06:00:00 10,1 9,3 - - 0,0
22.10.2020 05:00:00 10,7 10,2 - - 0,0
22.10.2020 04:00:00 11,1 10,6 - - 0,2
22.10.2020 03:00:00 11,4 11,0 - - 0,2
22.10.2020 02:00:00 11,8 11,4 - - 0,8
22.10.2020 01:00:00 12,2 11,8 - - 0,2
22.10.2020 00:00:00 11,6 11,3 - - 0,0
21.10.2020 23:00:00 11,4 10,9 - - 0,0
21.10.2020 22:00:00 11,9 11,1 - - 0,2
21.10.2020 21:00:00 13,2 12,5 - - 0,0
21.10.2020 20:00:00 13,8 13,0 - - 0,4
21.10.2020 19:00:00 13,5 13,2 - - 0,2
21.10.2020 18:00:00 13,6 13,1 - - 1,6
21.10.2020 17:00:00 13,6 12,9 - - 0,6

tt = Température de l'air
td = dewpoint
tt -20cm = Température de l'air -20cm
tt -100cm = Température de l'air -100cm
rr = Quantités de précipitations

stations d'obs. à proximité